Řízení letového provozu České republiky
Letiste: LKKB Aktualizace: 20.10.2018 23:01:06  UTC
 METAR LKKB 20.10. 23:00 ...
METAR LKKB 202300Z 27003KT CAVOK 08/04 Q1028 RMK BLU=
 TAF LKKB 20.10. 17:00 CCA
TAF COR LKKB 201700Z 2018/2118 29004KT CAVOK      TEMPO 2022/2109 BKN025      PROB40 2104/2107 6000 SCT012      BECMG 2109/2111 35006KT SCT028      BECMG 2115/2117 VRB02KT CAVOK=